Harbor Springs, MI

8:51 PM EDT on September 21, 2014 (GMT -0400)
Boyne Highlands Resort | Change Station
CLOSE
Current Station
Personal Weather Station
Location: Harbor Springs, MI
Elevation: 787 ft
Nearby Weather Stations

Elev 787 ft 45.47 °N, 84.94 °W | Updated 7 seconds ago

Overcast
Overcast
47.1 °F
Feels Like 44 °F
N
7.0
Wind Variable Wind from NW
Gusts 15.0 mph

Today
High -- | Low -- °F
--% Chance of Precip.
Yesterday
High -- | Low -- °F
Precip. -- in
7:26 AM 7:39 PM
Waning Crescent, 5% visible
Pressure 30.06 in
Visibility 10.0 miles
Clouds Overcast 2900 ft
Windchill 44 °F
Dew Point 41 °F
Humidity 78%
Rainfall 1.49 in
Snow Depth Not available.
UV 0 out of 12
Pollen 1.40 out of 12
Ozone Good
PM2.5 Good
Flu Activity Not available.
METAR KCVX 220034Z AUTO 34015G22KT 310V010 10SM OVC029 10/05 A3006 RMK AO2 T00990051

More Conditions Fewer Conditions

Pressure 30.06 in
Visibility 10.0 miles
Clouds Overcast 2900 ft
Windchill 44 °F
Dew Point 41 °F
Humidity 78%
Rainfall 1.49 in
Snow Depth Not available.
UV 0 out of 12
Pollen 1.40 out of 12
Ozone Good
PM2.5 Good
Flu Activity Not available.
METAR KCVX 220034Z AUTO 34015G22KT 310V010 10SM OVC029 10/05 A3006 RMK AO2 T00990051

More Conditions Fewer Conditions

Nowcast | as of 8:00 PM EDT on September 21, 2014

At 9 PM...mostly cloudy. Temperature 49. North winds 17 mph. At 11 PM...mostly cloudy. Temperature 48. North winds 15 mph. At 1 am...mostly cloudy. Temperature 47. North winds 13 mph. At 3 am...mostly cloudy. Temperature 46. North winds 11 mph.

×

10-Day Weather Forecast

Almanac

Astronomy

Sep. 21, 2014 Rise Set
Actual Time 7:26 AM EDT 7:39 PM EDT
Civil Twilight 6:56 AM EDT 8:09 PM EDT
Nautical Twilight 6:21 AM EDT 8:43 PM EDT
Astronomical Twilight 5:45 AM EDT 9:19 PM EDT
Moon 4:53 AM EDT (9/21) 6:19 PM EDT (9/21)
Length of Visible Light 13h 12m
Length of Day
12h 13m
Tomorrow will be 3m 9s shorter.
Waning Crescent, 5% of the Moon is Illuminated
Today
Waning Crescent
Sep 24
New
Oct 1
First Quarter
Oct 8
Full
Oct 15
Last Quarter

Today's Extremes

State Highs State Lows

Community

WunderPhotos

Upload Photos

1,755,316 photos uploaded!

WunderBlogs® & News

Nearby

Air Quality

  Air Quality AQ Index Pollutant
Yesterday Moderate
PM2.5
Yesterday Good
OZONE
Current Good
OZONE
Current Good
PM2.5
Sunday Good
OZONE
Sunday Good
PM2.5
Monday Good
OZONE
Monday Good
PM2.5

Snow Depth

Station Depth Elevation
No new snow has been reported.

Earthquake Activity

City Distance Mag. Time & Date
No recent earthquake activity has been reported nearby.
Minimum magnitude displayed is 2.5.

Coastal Water Temperatures

Place Temperature
Mackinaw City, MI 59.0 °F
Port Inland, MI 61.0 °F

Nearby Weather Stations